Time;durP1;ratioP1;P1;durP2;ratioP2;P2;SDS_P1;SDS_P2;PMS_P1;PMS_P2;Temp;Humidity;BMP_temperature;BMP_pressure;BME280_temperature;BME280_humidity;BME280_pressure;Samples;Min_cycle;Max_cycle;Signal;HPM_P1;HPM_P2
2023/08/30 00:00:10;;;;;;;13.10;9.70;;;;;;;31.04;51.45;99755.22;107831;1290;21996;-70
2023/08/30 00:02:36;;;;;;;14.10;9.10;;;;;;;31.04;51.34;99761.21;107878;1286;22035;-70
2023/08/30 00:05:03;;;;;;;13.30;9.80;;;;;;;31.05;51.48;99759.14;107902;1283;21988;-70
2023/08/30 00:07:29;;;;;;;17.30;10.60;;;;;;;31.05;51.63;99754.61;107917;1289;22463;-69
2023/08/30 00:09:55;;;;;;;15.20;10.50;;;;;;;31.05;51.58;99757.50;107833;1286;22000;-71
2023/08/30 00:12:21;;;;;;;13.80;10.50;;;;;;;31.06;51.71;99755.23;107876;1289;22007;-72
2023/08/30 00:14:47;;;;;;;15.50;10.50;;;;;;;31.06;51.59;99754.66;107716;1290;22026;-71
2023/08/30 00:17:13;;;;;;;14.40;10.10;;;;;;;31.06;51.76;99758.26;107652;1286;22459;-71
2023/08/30 00:19:38;;;;;;;12.40;9.80;;;;;;;31.07;51.57;99761.86;107629;1291;22006;-71
2023/08/30 00:22:07;;;;;;;16.60;10.00;;;;;;;31.07;51.45;99763.98;107711;1283;22227;-71
2023/08/30 00:24:33;;;;;;;14.50;10.00;;;;;;;31.07;51.65;99764.73;107713;1290;22011;-72
2023/08/30 00:27:03;;;;;;;17.00;10.30;;;;;;;31.06;51.69;99771.85;107653;1289;22072;-60
2023/08/30 00:29:29;;;;;;;14.60;10.40;;;;;;;31.05;51.76;99776.29;107702;1283;22766;-70
2023/08/30 00:31:55;;;;;;;13.90;9.90;;;;;;;31.03;51.93;99776.52;107649;1286;23618;-60
2023/08/30 00:34:20;;;;;;;12.30;9.70;;;;;;;31.00;51.80;99780.46;107792;1290;21995;-71
2023/08/30 00:36:46;;;;;;;15.40;9.80;;;;;;;30.97;51.82;99780.63;107660;1290;21993;-60
2023/08/30 00:39:12;;;;;;;12.20;10.10;;;;;;;30.95;51.97;99779.08;107633;1289;21985;-60
2023/08/30 00:41:38;;;;;;;13.90;9.00;;;;;;;30.92;52.06;99779.00;107649;1291;21999;-71
2023/08/30 00:44:04;;;;;;;11.60;8.10;;;;;;;30.89;51.91;99779.31;107649;1286;21995;-60
2023/08/30 00:46:30;;;;;;;13.10;8.90;;;;;;;30.87;51.99;99780.80;107655;1289;21993;-60
2023/08/30 00:48:55;;;;;;;12.50;8.00;;;;;;;30.85;52.15;99783.69;107798;1291;21995;-63
2023/08/30 00:51:21;;;;;;;8.30;7.30;;;;;;;30.84;52.22;99780.80;107781;1289;21993;-68
2023/08/30 00:53:48;;;;;;;12.40;7.60;;;;;;;30.81;52.31;99783.27;107828;1285;23618;-72
2023/08/30 00:56:13;;;;;;;10.20;7.20;;;;;;;30.79;52.61;99786.55;107884;1287;21979;-71
2023/08/30 00:58:39;;;;;;;12.60;7.30;;;;;;;30.75;52.63;99787.34;107871;1280;21996;-60
2023/08/30 01:01:08;;;;;;;12.30;7.50;;;;;;;30.71;52.78;99787.39;107865;1286;21992;-59
2023/08/30 01:03:34;;;;;;;11.90;7.30;;;;;;;30.68;52.81;99791.34;107775;1286;21992;-69
2023/08/30 01:06:01;;;;;;;9.80;6.70;;;;;;;30.65;52.76;99793.40;107641;1286;22688;-71
2023/08/30 01:08:27;;;;;;;16.50;7.20;;;;;;;30.64;52.90;99795.77;107665;1286;21992;-72
2023/08/30 01:10:59;;;;;;;11.80;7.40;;;;;;;30.62;53.03;99797.57;107606;1290;21993;-71
2023/08/30 01:13:25;;;;;;;11.40;7.30;;;;;;;30.61;53.06;99797.36;107804;1279;22006;-70
2023/08/30 01:15:51;;;;;;;12.40;7.50;;;;;;;30.60;53.22;99794.23;107646;1286;23618;-71
2023/08/30 01:18:20;;;;;;;11.90;8.10;;;;;;;30.59;53.35;99793.91;107674;1290;22017;-60
2023/08/30 01:20:46;;;;;;;14.50;8.60;;;;;;;30.61;53.37;99793.92;107811;1286;22000;-60
2023/08/30 01:23:36;;;;;;;13.00;9.40;;;;;;;30.62;53.48;99792.20;107636;1283;21999;-72
2023/08/30 01:26:24;;;;;;;14.60;9.40;;;;;;;30.61;53.61;99790.94;107757;1286;22015;-60
2023/08/30 01:28:51;;;;;;;13.10;9.60;;;;;;;30.61;53.85;99792.02;107813;1291;22010;-72
2023/08/30 01:31:16;;;;;;;14.20;10.10;;;;;;;30.61;53.89;99790.30;107700;1290;21982;-61
2023/08/30 01:33:42;;;;;;;13.40;10.20;;;;;;;30.60;53.96;99787.34;107825;1283;22000;-72
2023/08/30 01:36:07;;;;;;;15.20;11.10;;;;;;;30.57;54.05;99785.41;107846;1289;23628;-72
2023/08/30 01:38:33;;;;;;;14.70;12.00;;;;;;;30.57;54.19;99785.93;107796;1290;22824;-60
2023/08/30 01:41:02;;;;;;;15.40;11.50;;;;;;;30.58;54.28;99786.41;107812;1288;22462;-71
2023/08/30 01:43:30;;;;;;;16.30;12.90;;;;;;;30.59;54.45;99790.99;107744;1290;24312;-60
2023/08/30 01:45:56;;;;;;;16.10;12.50;;;;;;;30.59;54.76;99792.48;107669;1289;21989;-60
2023/08/30 01:48:22;;;;;;;15.80;12.50;;;;;;;30.58;54.80;99793.84;107618;1286;22001;-72
2023/08/30 01:50:47;;;;;;;17.40;13.80;;;;;;;30.57;54.87;99794.64;107643;1289;22007;-72
2023/08/30 01:53:13;;;;;;;17.30;12.90;;;;;;;30.56;55.16;99794.73;107846;1290;22005;-72
2023/08/30 01:55:39;;;;;;;17.40;14.20;;;;;;;30.54;55.49;99796.04;107705;1286;21998;-61
2023/08/30 01:58:05;;;;;;;18.20;14.00;;;;;;;30.52;55.13;99796.77;107789;1283;22460;-72
2023/08/30 02:00:31;;;;;;;20.10;14.30;;;;;;;30.50;55.31;99794.59;107730;1290;23546;-72
2023/08/30 02:02:57;;;;;;;15.90;14.20;;;;;;;30.48;55.31;99794.61;107661;1290;22037;-60
2023/08/30 02:05:22;;;;;;;18.60;14.80;;;;;;;30.46;55.52;99792.14;107871;1282;21998;-71
2023/08/30 02:08:05;;;;;;;18.20;14.70;;;;;;;30.43;55.62;99794.30;107642;1289;23645;-60
2023/08/30 02:10:35;;;;;;;16.80;13.60;;;;;;;30.39;55.78;99793.77;107643;1286;22013;-73
2023/08/30 02:13:01;;;;;;;15.70;14.00;;;;;;;30.36;55.65;99796.33;107614;1290;21995;-60
2023/08/30 02:15:27;;;;;;;18.00;15.00;;;;;;;30.34;55.79;99796.73;107694;1286;22030;-61
2023/08/30 02:17:53;;;;;;;17.20;13.70;;;;;;;30.31;55.79;99794.09;107784;1282;22000;-61
2023/08/30 02:20:18;;;;;;;19.70;14.70;;;;;;;30.29;55.97;99793.07;107825;1291;23647;-73
2023/08/30 02:22:44;;;;;;;17.80;14.00;;;;;;;30.26;56.36;99789.48;107600;1289;22017;-72
2023/08/30 02:25:10;;;;;;;18.30;13.90;;;;;;;30.23;56.19;99794.70;107669;1289;23059;-60
2023/08/30 02:27:35;;;;;;;17.50;13.90;;;;;;;30.20;56.17;99795.58;107647;1284;22004;-73
2023/08/30 02:30:02;;;;;;;17.20;13.20;;;;;;;30.18;56.25;99798.03;107664;1290;21990;-60
2023/08/30 02:32:28;;;;;;;15.90;12.70;;;;;;;30.14;56.38;99802.73;107899;1291;21994;-60
2023/08/30 02:34:55;;;;;;;21.90;13.80;;;;;;;30.11;56.56;99803.95;107482;1285;276309;-72
2023/08/30 02:37:21;;;;;;;15.70;12.80;;;;;;;30.08;56.38;99801.61;107672;1291;23048;-72
2023/08/30 02:39:47;;;;;;;17.30;12.70;;;;;;;30.04;56.66;99800.66;107740;1291;23664;-60
2023/08/30 02:42:12;;;;;;;19.10;13.30;;;;;;;30.02;56.61;99804.19;107769;1285;21995;-60
2023/08/30 02:44:38;;;;;;;16.90;12.70;;;;;;;29.99;56.58;99804.30;107644;1282;22001;-73
2023/08/30 02:47:03;;;;;;;17.30;12.90;;;;;;;29.97;56.88;99805.55;107649;1286;21998;-60
2023/08/30 02:49:29;;;;;;;16.60;12.40;;;;;;;29.94;57.09;99806.40;107648;1290;22109;-73
2023/08/30 02:51:55;;;;;;;15.30;11.90;;;;;;;29.90;56.96;99804.98;107680;1286;23728;-59
2023/08/30 02:54:22;;;;;;;17.00;12.20;;;;;;;29.87;57.03;99803.63;107662;1280;22041;-60
2023/08/30 02:56:48;;;;;;;16.00;11.70;;;;;;;29.85;57.02;99802.23;107759;1291;22000;-74
2023/08/30 02:59:13;;;;;;;13.90;11.70;;;;;;;29.83;57.34;99800.11;107654;1291;23782;-59
2023/08/30 03:01:39;;;;;;;16.00;11.80;;;;;;;29.81;57.43;99799.96;107673;1286;21990;-73
2023/08/30 03:04:05;;;;;;;14.70;11.60;;;;;;;29.79;57.61;99802.84;107808;1291;21996;-73
2023/08/30 03:06:32;;;;;;;15.90;11.40;;;;;;;29.77;57.64;99800.19;107819;1286;22010;-59
2023/08/30 03:08:58;;;;;;;15.30;11.20;;;;;;;29.74;57.51;99802.10;107869;1287;21992;-74
2023/08/30 03:11:24;;;;;;;14.40;11.20;;;;;;;29.73;57.47;99805.89;107841;1290;21997;-74
2023/08/30 03:13:50;;;;;;;16.30;11.30;;;;;;;29.72;57.57;99805.81;107898;1290;23847;-60
2023/08/30 03:16:16;;;;;;;17.40;11.20;;;;;;;29.70;57.56;99809.71;108096;1282;21994;-73
2023/08/30 03:18:42;;;;;;;16.60;10.40;;;;;;;29.69;57.73;99807.14;107879;1283;23622;-72
2023/08/30 03:21:08;;;;;;;16.40;10.00;;;;;;;29.67;57.74;99807.33;107865;1290;21989;-60
2023/08/30 03:23:35;;;;;;;19.10;10.00;;;;;;;29.65;57.80;99806.84;107869;1286;21990;-61
2023/08/30 03:26:14;;;;;;;13.70;9.50;;;;;;;29.63;57.92;99811.02;107934;1290;22002;-60
2023/08/30 03:28:40;;;;;;;12.60;9.70;;;;;;;29.61;57.96;99811.56;107898;1290;22938;-72
2023/08/30 03:31:15;;;;;;;13.30;9.30;;;;;;;29.59;58.01;99814.64;107905;1289;21998;-61
2023/08/30 03:33:41;;;;;;;15.50;9.60;;;;;;;29.58;58.01;99817.87;107828;1290;23380;-72
2023/08/30 03:36:09;;;;;;;18.90;9.50;;;;;;;29.57;58.28;99817.92;107894;1289;21991;-71
2023/08/30 03:38:35;;;;;;;16.00;8.60;;;;;;;29.56;58.06;99817.50;107927;1279;22031;-60
2023/08/30 03:41:00;;;;;;;14.80;8.40;;;;;;;29.57;58.06;99818.36;107883;1286;21995;-60
2023/08/30 03:43:26;;;;;;;13.00;8.00;;;;;;;29.57;58.44;99821.41;107892;1286;22008;-60
2023/08/30 03:45:52;;;;;;;17.60;7.30;;;;;;;29.58;58.36;99823.11;107898;1290;22009;-59
2023/08/30 03:48:18;;;;;;;14.70;7.10;;;;;;;29.60;58.57;99821.56;107907;1286;21999;-72
2023/08/30 03:50:43;;;;;;;12.50;6.60;;;;;;;29.62;58.74;99824.23;107907;1289;22062;-61
2023/08/30 03:53:09;;;;;;;9.70;6.10;;;;;;;29.64;58.62;99825.30;107896;1284;22048;-73
2023/08/30 03:55:34;;;;;;;10.10;6.00;;;;;;;29.68;58.99;99827.48;107894;1290;22114;-59
2023/08/30 03:58:00;;;;;;;10.60;6.30;;;;;;;29.71;58.83;99823.93;107898;1283;22006;-60
2023/08/30 04:00:25;;;;;;;13.50;6.60;;;;;;;29.74;58.93;99823.81;107888;1283;21992;-60
2023/08/30 04:02:51;;;;;;;9.40;6.10;;;;;;;29.78;58.99;99822.80;107890;1284;21999;-60
2023/08/30 04:05:17;;;;;;;11.60;5.70;;;;;;;29.83;59.03;99827.89;107886;1289;22000;-60
2023/08/30 04:07:42;;;;;;;18.20;6.00;;;;;;;29.88;59.04;99833.98;107890;1283;21973;-61
2023/08/30 04:10:08;;;;;;;10.60;5.40;;;;;;;29.93;59.05;99835.90;107901;1276;21995;-60
2023/08/30 04:12:34;;;;;;;8.20;4.80;;;;;;;30.00;59.09;99836.38;107930;1290;22476;-69
2023/08/30 04:15:01;;;;;;;10.60;5.00;;;;;;;30.06;59.20;99838.66;107989;1290;23724;-60
2023/08/30 04:17:27;;;;;;;8.50;4.70;;;;;;;30.12;59.37;99837.11;107950;1290;22002;-65
2023/08/30 04:19:53;;;;;;;7.00;4.50;;;;;;;30.18;59.49;99838.13;107805;1291;21995;-60
2023/08/30 04:22:19;;;;;;;9.50;4.30;;;;;;;30.24;59.74;99839.33;107838;1283;22002;-71
2023/08/30 04:24:45;;;;;;;10.50;4.70;;;;;;;30.31;59.42;99843.12;107658;1286;23843;-60
2023/08/30 04:27:11;;;;;;;13.10;4.50;;;;;;;30.37;59.42;99844.48;107676;1289;21993;-72
2023/08/30 04:29:37;;;;;;;15.20;4.30;;;;;;;30.43;59.21;99846.93;107658;1281;23684;-71
2023/08/30 04:32:02;;;;;;;7.70;3.40;;;;;;;30.50;59.37;99846.41;107628;1286;21996;-60
2023/08/30 04:34:30;;;;;;;8.90;4.50;;;;;;;30.56;59.11;99845.41;107725;1289;21995;-72
2023/08/30 04:36:56;;;;;;;10.60;4.10;;;;;;;30.63;58.91;99846.72;107864;1289;23126;-72
2023/08/30 04:39:22;;;;;;;6.40;3.30;;;;;;;30.70;59.03;99840.66;107851;1289;21982;-70
2023/08/30 04:41:47;;;;;;;8.80;3.40;;;;;;;30.76;58.80;99840.95;107733;1289;22007;-60
2023/08/30 04:44:13;;;;;;;10.50;3.50;;;;;;;30.82;59.28;99845.27;107632;1286;21988;-72
2023/08/30 04:46:38;;;;;;;5.30;3.00;;;;;;;30.88;58.78;99846.04;107643;1290;24395;-71
2023/08/30 04:49:04;;;;;;;5.80;3.40;;;;;;;30.95;58.55;99847.44;107617;1289;22168;-60
2023/08/30 04:51:30;;;;;;;8.00;3.10;;;;;;;31.03;58.69;99849.77;108080;1286;22004;-72
2023/08/30 04:53:56;;;;;;;8.00;3.60;;;;;;;31.09;58.58;99851.80;107887;1291;21993;-60
2023/08/30 04:56:21;;;;;;;5.80;3.10;;;;;;;31.16;58.47;99855.45;107859;1290;21993;-60
2023/08/30 04:58:47;;;;;;;6.30;3.10;;;;;;;31.21;58.61;99855.84;107851;1279;21998;-60
2023/08/30 05:01:13;;;;;;;8.80;3.60;;;;;;;31.26;59.02;99858.30;107816;1284;22010;-74
2023/08/30 05:03:40;;;;;;;9.90;4.30;;;;;;;31.34;58.74;99860.55;107815;1290;23667;-60
2023/08/30 05:06:05;;;;;;;9.20;3.50;;;;;;;31.43;58.52;99857.73;107839;1284;21984;-72
2023/08/30 05:08:31;;;;;;;6.60;3.50;;;;;;;31.50;58.17;99857.17;107816;1290;21982;-60
2023/08/30 05:10:56;;;;;;;7.80;3.20;;;;;;;31.57;57.78;99858.75;107837;1290;22003;-72
2023/08/30 05:13:22;;;;;;;6.10;2.90;;;;;;;31.65;57.31;99862.08;107871;1290;23872;-60
2023/08/30 05:15:48;;;;;;;8.20;2.70;;;;;;;31.76;56.86;99864.38;107820;1284;22467;-60
2023/08/30 05:18:13;;;;;;;9.00;2.80;;;;;;;31.87;56.60;99861.46;107821;1284;21959;-60
2023/08/30 05:20:39;;;;;;;6.00;2.70;;;;;;;32.00;56.06;99860.08;107879;1280;22007;-60
2023/08/30 05:23:05;;;;;;;7.60;3.20;;;;;;;32.11;55.45;99853.82;107908;1287;21990;-73
2023/08/30 05:25:30;;;;;;;7.00;2.80;;;;;;;32.24;55.51;99855.98;107845;1289;23713;-69
2023/08/30 05:27:56;;;;;;;6.00;2.80;;;;;;;32.45;55.07;99856.40;107867;1290;22460;-60
2023/08/30 05:30:21;;;;;;;9.40;2.90;;;;;;;32.67;54.42;99855.36;107867;1286;22107;-60
2023/08/30 05:32:47;;;;;;;7.60;2.50;;;;;;;32.82;53.49;99853.98;107889;1290;22072;-60
2023/08/30 05:35:13;;;;;;;7.40;2.60;;;;;;;32.95;53.10;99854.55;107891;1286;21996;-76
2023/08/30 05:37:38;;;;;;;8.20;2.30;;;;;;;33.08;52.56;99854.90;107862;1284;21993;-74
2023/08/30 05:40:05;;;;;;;6.50;2.90;;;;;;;33.21;52.21;99858.23;107866;1290;21993;-75
2023/08/30 05:42:31;;;;;;;4.00;2.30;;;;;;;33.38;51.88;99859.73;107913;1286;21995;-83
2023/08/30 05:44:56;;;;;;;4.10;2.40;;;;;;;33.54;50.75;99860.31;107842;1278;22096;-60
2023/08/30 05:47:22;;;;;;;11.20;2.60;;;;;;;33.65;49.43;99861.86;107858;1284;21994;-59
2023/08/30 05:49:47;;;;;;;10.40;2.30;;;;;;;33.76;49.57;99862.39;107982;1283;22007;-59
2023/08/30 05:52:16;;;;;;;9.00;2.60;;;;;;;33.96;49.05;99865.52;108012;1280;22001;-60
2023/08/30 05:54:42;;;;;;;8.00;2.20;;;;;;;34.12;48.73;99863.84;107869;1286;21993;-77
2023/08/30 05:57:09;;;;;;;5.50;2.30;;;;;;;34.25;48.76;99863.87;107730;1286;21992;-61
2023/08/30 05:59:35;;;;;;;6.40;2.70;;;;;;;34.41;48.57;99866.00;107968;1290;22003;-59
2023/08/30 06:02:01;;;;;;;6.90;2.90;;;;;;;34.54;48.00;99866.14;107884;1289;22008;-75
2023/08/30 06:04:27;;;;;;;6.70;2.30;;;;;;;34.65;47.22;99870.52;107886;1288;21990;-73
2023/08/30 06:06:52;;;;;;;6.30;2.40;;;;;;;34.73;47.67;99867.87;107900;1286;22322;-60
2023/08/30 06:09:18;;;;;;;6.30;2.90;;;;;;;34.84;47.78;99864.76;107846;1290;22003;-59
2023/08/30 06:11:43;;;;;;;12.00;3.50;;;;;;;34.99;47.60;99861.27;107832;1281;22006;-77
2023/08/30 06:14:09;;;;;;;8.10;3.10;;;;;;;35.15;46.95;99858.92;107816;1283;22094;-72
2023/08/30 06:16:35;;;;;;;6.70;2.80;;;;;;;35.24;47.09;99858.94;107862;1286;23688;-60
2023/08/30 06:19:00;;;;;;;7.30;3.30;;;;;;;35.37;47.36;99861.52;107873;1280;21991;-59
2023/08/30 06:21:26;;;;;;;7.70;3.00;;;;;;;35.53;46.70;99861.54;107856;1289;21991;-60
2023/08/30 06:23:51;;;;;;;7.30;2.80;;;;;;;35.67;46.47;99864.29;107881;1289;22457;-59
2023/08/30 06:26:18;;;;;;;9.80;2.50;;;;;;;35.81;46.01;99869.11;107862;1289;21996;-75
2023/08/30 06:28:44;;;;;;;7.20;3.60;;;;;;;35.89;45.43;99868.42;107857;1283;22005;-76
2023/08/30 06:31:10;;;;;;;6.40;2.80;;;;;;;35.93;44.89;99874.57;107872;1282;22007;-61
2023/08/30 06:33:36;;;;;;;8.00;3.30;;;;;;;35.87;44.17;99878.15;107864;1283;21984;-60
2023/08/30 06:36:02;;;;;;;8.90;3.00;;;;;;;35.80;44.41;99878.91;107832;1286;21995;-74
2023/08/30 06:38:28;;;;;;;8.00;3.00;;;;;;;35.87;45.44;99880.50;107891;1284;22083;-59
2023/08/30 06:40:53;;;;;;;5.90;3.20;;;;;;;36.04;44.90;99882.56;107857;1283;21999;-76
2023/08/30 06:43:19;;;;;;;7.10;3.30;;;;;;;36.19;43.56;99881.63;108019;1286;23644;-60
2023/08/30 06:45:46;;;;;;;5.90;3.00;;;;;;;36.27;43.97;99879.48;108151;1289;21991;-74
2023/08/30 06:48:11;;;;;;;7.50;2.90;;;;;;;36.30;42.97;99874.08;107974;1285;21995;-60
2023/08/30 06:50:37;;;;;;;7.50;2.80;;;;;;;36.36;42.83;99877.61;107863;1283;22002;-74
2023/08/30 06:53:03;;;;;;;8.70;3.20;;;;;;;36.39;42.46;99872.07;107920;1290;22088;-76
2023/08/30 06:55:29;;;;;;;7.00;3.10;;;;;;;36.48;42.79;99874.16;107930;1289;22005;-59
2023/08/30 06:57:55;;;;;;;7.10;3.20;;;;;;;36.64;42.31;99871.23;108119;1286;21995;-71
2023/08/30 07:00:21;;;;;;;7.60;3.10;;;;;;;36.74;41.28;99876.12;108056;1289;23059;-61
2023/08/30 07:02:47;;;;;;;6.40;3.30;;;;;;;36.84;41.13;99880.17;107908;1289;23702;-77
2023/08/30 07:05:13;;;;;;;8.80;3.70;;;;;;;36.96;40.72;99882.05;107854;1286;22081;-59
2023/08/30 07:07:39;;;;;;;7.40;3.20;;;;;;;37.03;40.34;99884.97;107887;1286;22030;-75
2023/08/30 07:10:05;;;;;;;8.70;3.30;;;;;;;37.01;39.11;99885.16;108013;1283;21993;-77
2023/08/30 07:12:31;;;;;;;9.00;3.30;;;;;;;37.00;39.53;99880.94;107914;1290;22000;-76
2023/08/30 07:14:56;;;;;;;7.20;3.10;;;;;;;37.10;39.91;99884.02;107827;1289;21995;-61
2023/08/30 07:17:22;;;;;;;9.50;3.60;;;;;;;37.21;39.51;99882.83;107807;1276;21962;-61
2023/08/30 07:19:49;;;;;;;10.00;2.70;;;;;;;37.37;39.84;99882.31;107998;1286;21993;-61
2023/08/30 07:22:16;;;;;;;8.30;3.10;;;;;;;37.51;37.68;99886.09;107947;1283;22003;-60
2023/08/30 07:24:45;;;;;;;6.40;2.70;;;;;;;37.58;39.01;99882.27;107941;1290;22003;-60
2023/08/30 07:27:12;;;;;;;11.20;2.70;;;;;;;37.79;39.44;99878.77;107891;1286;21997;-82
2023/08/30 07:29:40;;;;;;;8.40;3.20;;;;;;;38.10;39.04;99882.89;107923;1289;21998;-60
2023/08/30 07:32:07;;;;;;;6.40;2.80;;;;;;;38.27;37.72;99886.38;107865;1284;21990;-61
2023/08/30 07:34:33;;;;;;;11.40;2.80;;;;;;;38.16;36.52;99886.95;107856;1281;21990;-60
2023/08/30 07:36:58;;;;;;;12.50;2.90;;;;;;;38.03;37.10;99888.04;107898;1284;21992;-75
2023/08/30 07:39:24;;;;;;;7.40;2.70;;;;;;;38.20;37.56;99885.59;107795;1282;23777;-80
2023/08/30 07:41:50;;;;;;;8.40;3.00;;;;;;;38.49;36.98;99894.01;107823;1289;22023;-60
2023/08/30 07:44:16;;;;;;;6.60;3.10;;;;;;;38.76;36.75;99886.92;107844;1289;21989;-78
2023/08/30 07:46:42;;;;;;;7.80;3.40;;;;;;;38.85;34.86;99885.04;107853;1287;22002;-60
2023/08/30 07:49:07;;;;;;;6.20;2.90;;;;;;;38.85;35.24;99884.44;107872;1279;21990;-83
2023/08/30 07:51:33;;;;;;;4.40;2.80;;;;;;;38.93;35.44;99875.75;107872;1290;22462;-80
2023/08/30 07:53:58;;;;;;;7.90;3.20;;;;;;;39.14;35.75;99875.77;107838;1284;22012;-61
2023/08/30 07:56:24;;;;;;;7.30;3.10;;;;;;;39.26;34.04;99876.86;107849;1289;22033;-78
2023/08/30 07:58:50;;;;;;;8.90;2.20;;;;;;;39.36;34.58;99868.05;107851;1277;22005;-60
2023/08/30 08:01:15;;;;;;;5.80;2.70;;;;;;;39.53;34.92;99866.38;107859;1290;22001;-79
2023/08/30 08:03:41;;;;;;;5.20;2.50;;;;;;;39.79;34.91;99858.10;107876;1289;22109;-60
2023/08/30 08:06:07;;;;;;;6.90;2.90;;;;;;;40.03;33.60;99854.21;107899;1290;21992;-62
2023/08/30 08:08:32;;;;;;;4.60;2.90;;;;;;;40.00;31.94;99854.32;107924;1286;21991;-60
2023/08/30 08:11:02;;;;;;;9.90;3.10;;;;;;;39.92;33.43;99850.13;107842;1289;21993;-73
2023/08/30 08:13:28;;;;;;;8.60;2.80;;;;;;;39.99;33.14;99851.71;107902;1290;22177;-74
2023/08/30 08:15:56;;;;;;;6.00;2.50;;;;;;;40.17;33.68;99845.13;107827;1283;21989;-60
2023/08/30 08:18:22;;;;;;;5.40;2.60;;;;;;;40.43;33.70;99841.62;107840;1286;21998;-60
2023/08/30 08:20:48;;;;;;;6.00;2.60;;;;;;;40.61;32.39;99834.48;107890;1286;21964;-60
2023/08/30 08:23:13;;;;;;;11.90;3.40;;;;;;;40.65;32.48;99835.08;107941;1290;21989;-60
2023/08/30 08:25:39;;;;;;;7.80;2.10;;;;;;;40.75;32.74;99825.69;107848;1279;22059;-60
2023/08/30 08:28:05;;;;;;;5.70;2.50;;;;;;;40.95;32.33;99823.51;107856;1277;21995;-61
2023/08/30 08:30:30;;;;;;;7.70;2.70;;;;;;;41.18;31.96;99824.61;107852;1286;21998;-76
2023/08/30 08:32:57;;;;;;;4.80;2.70;;;;;;;41.33;31.90;99821.91;107851;1287;23732;-73
2023/08/30 08:35:23;;;;;;;8.00;2.40;;;;;;;41.30;31.29;99818.31;107893;1289;21993;-76
2023/08/30 08:37:49;;;;;;;6.00;2.60;;;;;;;41.19;31.17;99823.31;107822;1281;23670;-72
2023/08/30 08:40:14;;;;;;;7.80;2.50;;;;;;;41.09;30.36;99825.81;107992;1283;21995;-75
2023/08/30 08:42:40;;;;;;;9.30;2.80;;;;;;;40.97;30.76;99825.08;107906;1286;22964;-60
2023/08/30 08:45:06;;;;;;;7.60;2.40;;;;;;;41.05;31.29;99825.41;107894;1289;22011;-74
2023/08/30 08:47:32;;;;;;;6.90;2.40;;;;;;;41.20;31.21;99819.66;107924;1289;22004;-75
2023/08/30 08:49:58;;;;;;;10.00;2.80;;;;;;;41.30;30.04;99816.11;107902;1289;21985;-59
2023/08/30 08:52:24;;;;;;;5.50;2.10;;;;;;;41.32;30.35;99818.02;107844;1289;21986;-79
2023/08/30 08:54:49;;;;;;;6.00;2.70;;;;;;;41.41;30.47;99815.89;108799;1283;22006;-70
2023/08/30 08:57:15;;;;;;;5.10;2.20;;;;;;;41.53;30.22;99809.52;107838;1289;23810;-60
2023/08/30 08:59:41;;;;;;;9.00;2.10;;;;;;;41.67;29.71;99808.01;107855;1284;22464;-60
2023/08/30 09:02:07;;;;;;;3.70;2.00;;;;;;;41.76;28.56;99804.84;107960;1287;21986;-59
2023/08/30 09:04:32;;;;;;;7.20;2.40;;;;;;;41.62;27.69;99804.78;107896;1289;21993;-78
2023/08/30 09:06:59;;;;;;;5.00;2.30;;;;;;;41.47;28.83;99805.89;107917;1289;21994;-58
2023/08/30 09:09:25;;;;;;;6.80;2.80;;;;;;;41.42;29.18;99799.19;107904;1289;21992;-60
2023/08/30 09:11:50;;;;;;;5.40;2.40;;;;;;;41.51;29.48;99789.27;107950;1288;21959;-59
2023/08/30 09:14:16;;;;;;;8.10;3.00;;;;;;;41.67;29.51;99792.77;107903;1287;21989;-61
2023/08/30 09:16:42;;;;;;;7.90;2.20;;;;;;;41.80;29.05;99798.57;107926;1280;22176;-69
2023/08/30 09:19:10;;;;;;;5.40;2.10;;;;;;;41.82;28.51;99793.94;107869;1284;21999;-71
2023/08/30 09:21:36;;;;;;;5.10;1.80;;;;;;;41.70;28.24;99788.96;107865;1290;21995;-72
2023/08/30 09:24:03;;;;;;;4.30;1.90;;;;;;;41.59;28.77;99781.24;107752;1283;22030;-70
2023/08/30 09:26:33;;;;;;;6.40;1.80;;;;;;;41.66;28.73;99779.42;107814;1279;21992;-59
2023/08/30 09:29:03;;;;;;;5.20;2.10;;;;;;;41.75;27.56;99780.79;107849;1283;21964;-70
2023/08/30 09:31:36;;;;;;;5.70;2.30;;;;;;;41.63;27.56;99783.42;107856;1289;23660;-69
2023/08/30 09:34:04;;;;;;;5.20;2.10;;;;;;;41.39;27.79;99786.58;107835;1290;23722;-59
2023/08/30 09:36:36;;;;;;;4.70;2.00;;;;;;;41.38;28.39;99786.45;107824;1290;22008;-70
2023/08/30 09:39:11;;;;;;;5.20;2.20;;;;;;;41.49;28.14;99785.61;107865;1290;23722;-70
2023/08/30 09:41:41;;;;;;;5.90;2.30;;;;;;;41.59;28.29;99781.13;107860;1286;22004;-60
2023/08/30 09:44:10;;;;;;;3.80;2.60;;;;;;;41.65;27.43;99787.02;107829;1290;22032;-60
2023/08/30 09:46:45;;;;;;;6.50;2.30;;;;;;;41.45;27.65;99788.89;107832;1286;22053;-69
2023/08/30 09:49:11;;;;;;;5.80;2.10;;;;;;;41.23;27.03;99787.21;107831;1289;23668;-59
2023/08/30 09:51:40;;;;;;;5.60;2.30;;;;;;;41.01;27.13;99783.65;107879;1286;22001;-59
2023/08/30 09:54:06;;;;;;;6.10;2.50;;;;;;;40.95;26.38;99777.92;107861;1282;21989;-69
2023/08/30 09:56:32;;;;;;;6.40;2.10;;;;;;;40.91;27.34;99773.98;107788;1282;23732;-71
2023/08/30 09:58:59;;;;;;;5.40;2.40;;;;;;;41.14;27.69;99768.75;107872;1287;23650;-61
2023/08/30 10:01:26;;;;;;;4.40;2.30;;;;;;;41.23;25.84;99768.45;107903;1290;21995;-70
2023/08/30 10:03:52;;;;;;;8.20;2.30;;;;;;;40.80;25.65;99771.98;107860;1290;21998;-59
2023/08/30 10:06:18;;;;;;;6.50;2.30;;;;;;;40.40;26.88;99770.52;107716;1290;21991;-60
2023/08/30 10:08:43;;;;;;;4.50;2.20;;;;;;;40.33;26.38;99777.15;107799;1289;21993;-63
2023/08/30 10:11:09;;;;;;;4.00;2.10;;;;;;;40.26;26.61;99775.56;107803;1286;21995;-60
2023/08/30 10:13:35;;;;;;;5.50;2.50;;;;;;;40.32;26.83;99774.31;107784;1290;22004;-60
2023/08/30 10:16:04;;;;;;;4.50;2.10;;;;;;;40.33;26.71;99771.85;107892;1288;21987;-69
2023/08/30 10:18:30;;;;;;;11.60;2.40;;;;;;;40.49;27.41;99771.43;108366;1289;22002;-68
2023/08/30 10:20:56;;;;;;;6.90;2.90;;;;;;;40.94;27.54;99771.05;107992;1277;22563;-66
2023/08/30 10:23:21;;;;;;;3.90;2.10;;;;;;;41.44;27.36;99766.48;108078;1289;22004;-70
2023/08/30 10:25:48;;;;;;;7.50;2.40;;;;;;;41.81;27.07;99762.75;107987;1279;24337;-61
2023/08/30 10:28:14;;;;;;;4.90;2.30;;;;;;;42.05;26.00;99762.70;108046;1281;23910;-60
2023/08/30 10:30:39;;;;;;;6.20;2.40;;;;;;;42.01;25.25;99758.40;107979;1284;21993;-60
2023/08/30 10:33:12;;;;;;;5.00;2.00;;;;;;;41.92;25.81;99753.21;107858;1289;21988;-59
2023/08/30 10:35:51;;;;;;;4.40;2.60;;;;;;;42.01;26.07;99758.08;107873;1289;22004;-59
2023/08/30 10:38:29;;;;;;;7.40;2.00;;;;;;;42.22;25.87;99758.69;107844;1289;21997;-60
2023/08/30 10:40:55;;;;;;;6.60;1.90;;;;;;;41.85;24.08;99760.35;107886;1286;22000;-69
2023/08/30 10:43:33;;;;;;;6.30;2.80;;;;;;;41.46;25.35;99753.45;107667;1286;22033;-60
2023/08/30 10:46:00;;;;;;;7.00;2.50;;;;;;;41.21;23.85;99747.52;107813;1279;21998;-69
2023/08/30 10:48:36;;;;;;;8.80;3.20;;;;;;;40.77;23.92;99738.42;107837;1284;22462;-69
2023/08/30 10:51:04;;;;;;;6.40;2.50;;;;;;;40.57;24.07;99732.99;107882;1279;22035;-67
2023/08/30 10:53:30;;;;;;;5.00;2.00;;;;;;;40.49;25.05;99732.34;107857;1286;21992;-69
2023/08/30 10:56:03;;;;;;;5.00;2.30;;;;;;;40.67;24.75;99723.10;107774;1283;21994;-60
2023/08/30 10:58:39;;;;;;;8.80;2.50;;;;;;;40.99;25.06;99719.13;108041;1286;22034;-69
2023/08/30 11:01:07;;;;;;;5.20;2.20;;;;;;;41.41;25.47;99718.88;108013;1287;22047;-71
2023/08/30 11:03:33;;;;;;;4.80;2.00;;;;;;;41.80;25.32;99714.71;108024;1289;22030;-70
2023/08/30 11:06:01;;;;;;;8.20;2.20;;;;;;;42.11;24.89;99710.38;107910;1276;21993;-69
2023/08/30 11:08:28;;;;;;;4.70;1.80;;;;;;;42.31;24.68;99706.02;107781;1290;22000;-70
2023/08/30 11:11:06;;;;;;;4.50;2.10;;;;;;;42.36;23.88;99704.58;107869;1290;21996;-60
2023/08/30 11:13:32;;;;;;;5.20;2.10;;;;;;;42.12;23.76;99704.02;107735;1276;21988;-61
2023/08/30 11:16:01;;;;;;;4.20;2.50;;;;;;;41.84;23.59;99705.20;107797;1284;21998;-62